sensor_id;sensor_type;location;lat;lon;timestamp;temperature;humidity
33368;DHT22;19724;51.114;13.906;2023-01-26T00:00:54;1.70;99.90
33368;DHT22;19724;51.114;13.906;2023-01-26T00:03:20;1.60;99.90
33368;DHT22;19724;51.114;13.906;2023-01-26T00:05:46;1.60;99.90
33368;DHT22;19724;51.114;13.906;2023-01-26T00:08:12;1.70;99.90
33368;DHT22;19724;51.114;13.906;2023-01-26T00:10:39;1.60;99.90
33368;DHT22;19724;51.114;13.906;2023-01-26T00:13:06;1.50;99.90
33368;DHT22;19724;51.114;13.906;2023-01-26T00:15:33;1.50;99.90
33368;DHT22;19724;51.114;13.906;2023-01-26T00:17:59;1.50;99.90
33368;DHT22;19724;51.114;13.906;2023-01-26T00:20:25;1.60;99.90
33368;DHT22;19724;51.114;13.906;2023-01-26T00:22:51;1.50;99.90
33368;DHT22;19724;51.114;13.906;2023-01-26T00:25:16;1.50;99.90
33368;DHT22;19724;51.114;13.906;2023-01-26T00:27:42;1.40;99.90
33368;DHT22;19724;51.114;13.906;2023-01-26T00:30:08;1.50;99.90
33368;DHT22;19724;51.114;13.906;2023-01-26T00:32:34;1.50;99.90
33368;DHT22;19724;51.114;13.906;2023-01-26T00:35:00;1.50;99.90
33368;DHT22;19724;51.114;13.906;2023-01-26T00:37:25;1.40;99.90
33368;DHT22;19724;51.114;13.906;2023-01-26T00:39:51;1.40;99.90
33368;DHT22;19724;51.114;13.906;2023-01-26T00:42:16;1.50;99.90
33368;DHT22;19724;51.114;13.906;2023-01-26T00:44:42;1.50;99.90
33368;DHT22;19724;51.114;13.906;2023-01-26T00:47:10;1.50;99.90
33368;DHT22;19724;51.114;13.906;2023-01-26T00:49:36;1.50;99.90
33368;DHT22;19724;51.114;13.906;2023-01-26T00:52:02;1.50;99.90
33368;DHT22;19724;51.114;13.906;2023-01-26T00:54:27;1.50;99.90
33368;DHT22;19724;51.114;13.906;2023-01-26T00:56:53;1.50;99.90
33368;DHT22;19724;51.114;13.906;2023-01-26T00:59:19;1.50;99.90
33368;DHT22;19724;51.114;13.906;2023-01-26T01:01:45;1.50;99.90
33368;DHT22;19724;51.114;13.906;2023-01-26T01:04:11;1.50;99.90
33368;DHT22;19724;51.114;13.906;2023-01-26T01:06:36;1.50;99.90
33368;DHT22;19724;51.114;13.906;2023-01-26T01:09:02;1.50;99.90
33368;DHT22;19724;51.114;13.906;2023-01-26T01:11:28;1.50;99.90
33368;DHT22;19724;51.114;13.906;2023-01-26T01:13:53;1.50;99.90
33368;DHT22;19724;51.114;13.906;2023-01-26T01:16:19;1.50;99.90
33368;DHT22;19724;51.114;13.906;2023-01-26T01:18:45;1.50;99.90
33368;DHT22;19724;51.114;13.906;2023-01-26T01:21:15;1.50;99.90
33368;DHT22;19724;51.114;13.906;2023-01-26T01:23:41;1.50;99.90
33368;DHT22;19724;51.114;13.906;2023-01-26T01:26:07;1.50;99.90
33368;DHT22;19724;51.114;13.906;2023-01-26T01:28:36;1.50;99.90
33368;DHT22;19724;51.114;13.906;2023-01-26T01:31:06;1.50;99.90
33368;DHT22;19724;51.114;13.906;2023-01-26T01:33:32;1.50;99.90
33368;DHT22;19724;51.114;13.906;2023-01-26T01:36:12;1.50;99.90
33368;DHT22;19724;51.114;13.906;2023-01-26T01:38:37;1.50;99.90
33368;DHT22;19724;51.114;13.906;2023-01-26T01:41:03;1.50;99.90
33368;DHT22;19724;51.114;13.906;2023-01-26T01:43:29;1.50;99.90
33368;DHT22;19724;51.114;13.906;2023-01-26T01:45:54;1.50;99.90
33368;DHT22;19724;51.114;13.906;2023-01-26T01:48:52;1.50;99.90
33368;DHT22;19724;51.114;13.906;2023-01-26T01:53:56;1.50;99.90
33368;DHT22;19724;51.114;13.906;2023-01-26T01:56:24;1.60;99.90
33368;DHT22;19724;51.114;13.906;2023-01-26T01:58:54;1.60;99.90
33368;DHT22;19724;51.114;13.906;2023-01-26T02:01:20;1.60;99.90
33368;DHT22;19724;51.114;13.906;2023-01-26T02:03:50;1.60;99.90
33368;DHT22;19724;51.114;13.906;2023-01-26T02:06:21;1.60;99.90
33368;DHT22;19724;51.114;13.906;2023-01-26T02:08:51;1.60;99.90
33368;DHT22;19724;51.114;13.906;2023-01-26T02:11:21;1.60;99.90
33368;DHT22;19724;51.114;13.906;2023-01-26T02:13:48;1.60;99.90
33368;DHT22;19724;51.114;13.906;2023-01-26T02:16:15;1.60;99.90
33368;DHT22;19724;51.114;13.906;2023-01-26T02:18:42;1.60;99.90
33368;DHT22;19724;51.114;13.906;2023-01-26T02:21:11;1.50;99.90
33368;DHT22;19724;51.114;13.906;2023-01-26T02:26:25;1.50;99.90
33368;DHT22;19724;51.114;13.906;2023-01-26T02:28:52;1.50;99.90
33368;DHT22;19724;51.114;13.906;2023-01-26T02:31:18;1.50;99.90
33368;DHT22;19724;51.114;13.906;2023-01-26T02:33:44;1.40;99.90
33368;DHT22;19724;51.114;13.906;2023-01-26T02:36:21;1.50;99.90
33368;DHT22;19724;51.114;13.906;2023-01-26T02:41:27;1.50;99.90
33368;DHT22;19724;51.114;13.906;2023-01-26T02:44:12;1.50;99.90
33368;DHT22;19724;51.114;13.906;2023-01-26T02:46:38;1.60;99.90
33368;DHT22;19724;51.114;13.906;2023-01-26T02:49:03;1.50;99.90
33368;DHT22;19724;51.114;13.906;2023-01-26T02:51:47;1.50;99.90
33368;DHT22;19724;51.114;13.906;2023-01-26T02:54:13;1.50;99.90
33368;DHT22;19724;51.114;13.906;2023-01-26T02:56:58;1.50;99.90
33368;DHT22;19724;51.114;13.906;2023-01-26T02:59:24;1.50;99.90
33368;DHT22;19724;51.114;13.906;2023-01-26T03:01:50;1.60;99.90
33368;DHT22;19724;51.114;13.906;2023-01-26T03:04:17;1.50;99.90
33368;DHT22;19724;51.114;13.906;2023-01-26T03:06:42;1.50;99.90
33368;DHT22;19724;51.114;13.906;2023-01-26T03:09:08;1.50;99.90
33368;DHT22;19724;51.114;13.906;2023-01-26T03:11:33;1.50;99.90
33368;DHT22;19724;51.114;13.906;2023-01-26T03:14:10;1.50;99.90
33368;DHT22;19724;51.114;13.906;2023-01-26T03:16:35;1.50;99.90
33368;DHT22;19724;51.114;13.906;2023-01-26T03:19:01;1.50;99.90
33368;DHT22;19724;51.114;13.906;2023-01-26T03:21:29;1.50;99.90
33368;DHT22;19724;51.114;13.906;2023-01-26T03:24:14;1.50;99.90
33368;DHT22;19724;51.114;13.906;2023-01-26T03:26:59;1.50;99.90
33368;DHT22;19724;51.114;13.906;2023-01-26T03:29:43;1.50;99.90
33368;DHT22;19724;51.114;13.906;2023-01-26T03:32:08;1.50;99.90
33368;DHT22;19724;51.114;13.906;2023-01-26T03:34:34;1.50;99.90
33368;DHT22;19724;51.114;13.906;2023-01-26T03:37:00;1.50;99.90
33368;DHT22;19724;51.114;13.906;2023-01-26T03:39:26;1.40;99.90
33368;DHT22;19724;51.114;13.906;2023-01-26T03:42:10;1.50;99.90
33368;DHT22;19724;51.114;13.906;2023-01-26T03:44:54;1.40;99.90
33368;DHT22;19724;51.114;13.906;2023-01-26T03:47:38;1.40;99.90
33368;DHT22;19724;51.114;13.906;2023-01-26T03:50:22;1.40;99.90
33368;DHT22;19724;51.114;13.906;2023-01-26T03:53:17;1.40;99.90
33368;DHT22;19724;51.114;13.906;2023-01-26T03:56:03;1.40;99.90
33368;DHT22;19724;51.114;13.906;2023-01-26T03:58:53;1.40;99.90
33368;DHT22;19724;51.114;13.906;2023-01-26T04:01:21;1.30;99.90
33368;DHT22;19724;51.114;13.906;2023-01-26T04:03:53;1.40;99.90
33368;DHT22;19724;51.114;13.906;2023-01-26T04:06:40;1.40;99.90
33368;DHT22;19724;51.114;13.906;2023-01-26T04:09:24;1.40;99.90
33368;DHT22;19724;51.114;13.906;2023-01-26T04:11:50;1.40;99.90
33368;DHT22;19724;51.114;13.906;2023-01-26T04:14:16;1.40;99.90
33368;DHT22;19724;51.114;13.906;2023-01-26T04:17:01;1.40;99.90
33368;DHT22;19724;51.114;13.906;2023-01-26T04:19:45;1.40;99.90
33368;DHT22;19724;51.114;13.906;2023-01-26T04:22:30;1.40;99.90
33368;DHT22;19724;51.114;13.906;2023-01-26T04:24:58;1.40;99.90
33368;DHT22;19724;51.114;13.906;2023-01-26T04:27:24;1.50;99.90
33368;DHT22;19724;51.114;13.906;2023-01-26T04:29:49;1.40;99.90
33368;DHT22;19724;51.114;13.906;2023-01-26T04:32:15;1.40;99.90
33368;DHT22;19724;51.114;13.906;2023-01-26T04:34:40;1.40;99.90
33368;DHT22;19724;51.114;13.906;2023-01-26T04:37:07;1.40;99.90
33368;DHT22;19724;51.114;13.906;2023-01-26T04:39:33;1.40;99.90
33368;DHT22;19724;51.114;13.906;2023-01-26T04:41:58;1.40;99.90
33368;DHT22;19724;51.114;13.906;2023-01-26T04:44:24;1.40;99.90
33368;DHT22;19724;51.114;13.906;2023-01-26T04:46:49;1.40;99.90
33368;DHT22;19724;51.114;13.906;2023-01-26T04:49:15;1.40;99.90
33368;DHT22;19724;51.114;13.906;2023-01-26T04:51:40;1.40;99.90
33368;DHT22;19724;51.114;13.906;2023-01-26T04:54:06;1.30;99.90
33368;DHT22;19724;51.114;13.906;2023-01-26T04:56:33;1.40;99.90
33368;DHT22;19724;51.114;13.906;2023-01-26T04:59:04;1.30;99.90
33368;DHT22;19724;51.114;13.906;2023-01-26T05:01:30;1.40;99.90
33368;DHT22;19724;51.114;13.906;2023-01-26T05:03:58;1.40;99.90
33368;DHT22;19724;51.114;13.906;2023-01-26T05:06:24;1.30;99.90
33368;DHT22;19724;51.114;13.906;2023-01-26T05:08:49;1.40;99.90
33368;DHT22;19724;51.114;13.906;2023-01-26T05:11:15;1.30;99.90
33368;DHT22;19724;51.114;13.906;2023-01-26T05:13:40;1.30;99.90
33368;DHT22;19724;51.114;13.906;2023-01-26T05:16:06;1.30;99.90
33368;DHT22;19724;51.114;13.906;2023-01-26T05:18:32;1.30;99.90
33368;DHT22;19724;51.114;13.906;2023-01-26T05:20:57;1.40;99.90
33368;DHT22;19724;51.114;13.906;2023-01-26T05:23:23;1.40;99.90
33368;DHT22;19724;51.114;13.906;2023-01-26T05:25:49;1.30;99.90
33368;DHT22;19724;51.114;13.906;2023-01-26T05:28:14;1.40;99.90
33368;DHT22;19724;51.114;13.906;2023-01-26T05:30:40;1.40;99.90
33368;DHT22;19724;51.114;13.906;2023-01-26T05:33:07;1.50;99.90
33368;DHT22;19724;51.114;13.906;2023-01-26T05:35:33;1.30;99.90
33368;DHT22;19724;51.114;13.906;2023-01-26T05:37:59;1.30;99.90
33368;DHT22;19724;51.114;13.906;2023-01-26T05:40:24;1.40;99.90
33368;DHT22;19724;51.114;13.906;2023-01-26T05:42:51;1.40;99.90
33368;DHT22;19724;51.114;13.906;2023-01-26T05:45:17;1.40;99.90
33368;DHT22;19724;51.114;13.906;2023-01-26T05:47:43;1.40;99.90
33368;DHT22;19724;51.114;13.906;2023-01-26T05:50:10;1.40;99.90
33368;DHT22;19724;51.114;13.906;2023-01-26T05:52:36;1.30;99.90
33368;DHT22;19724;51.114;13.906;2023-01-26T05:55:02;1.30;99.90
33368;DHT22;19724;51.114;13.906;2023-01-26T05:57:28;1.30;99.90
33368;DHT22;19724;51.114;13.906;2023-01-26T05:59:53;1.30;99.90
33368;DHT22;19724;51.114;13.906;2023-01-26T06:02:19;1.30;99.90
33368;DHT22;19724;51.114;13.906;2023-01-26T06:04:45;1.30;99.90
33368;DHT22;19724;51.114;13.906;2023-01-26T06:07:11;1.30;99.90
33368;DHT22;19724;51.114;13.906;2023-01-26T06:09:40;1.30;99.90
33368;DHT22;19724;51.114;13.906;2023-01-26T06:12:10;1.30;99.90
33368;DHT22;19724;51.114;13.906;2023-01-26T06:14:36;1.30;99.90
33368;DHT22;19724;51.114;13.906;2023-01-26T06:17:02;1.30;99.90
33368;DHT22;19724;51.114;13.906;2023-01-26T06:19:27;1.30;99.90
33368;DHT22;19724;51.114;13.906;2023-01-26T06:21:53;1.20;99.90
33368;DHT22;19724;51.114;13.906;2023-01-26T06:24:18;1.30;99.90
33368;DHT22;19724;51.114;13.906;2023-01-26T06:26:46;1.30;99.90
33368;DHT22;19724;51.114;13.906;2023-01-26T06:29:12;1.20;99.90
33368;DHT22;19724;51.114;13.906;2023-01-26T06:31:38;1.20;99.90
33368;DHT22;19724;51.114;13.906;2023-01-26T06:34:04;1.20;99.90
33368;DHT22;19724;51.114;13.906;2023-01-26T06:36:30;1.30;99.90
33368;DHT22;19724;51.114;13.906;2023-01-26T06:38:55;1.30;99.90
33368;DHT22;19724;51.114;13.906;2023-01-26T06:41:20;1.20;99.90
33368;DHT22;19724;51.114;13.906;2023-01-26T06:43:47;1.30;99.90
33368;DHT22;19724;51.114;13.906;2023-01-26T06:46:14;1.20;99.90
33368;DHT22;19724;51.114;13.906;2023-01-26T06:48:40;1.20;99.90
33368;DHT22;19724;51.114;13.906;2023-01-26T06:54:10;1.30;99.90
33368;DHT22;19724;51.114;13.906;2023-01-26T06:56:36;1.30;99.90
33368;DHT22;19724;51.114;13.906;2023-01-26T06:59:01;1.40;99.90
33368;DHT22;19724;51.114;13.906;2023-01-26T07:01:30;1.20;99.90
33368;DHT22;19724;51.114;13.906;2023-01-26T07:03:57;1.20;99.90
33368;DHT22;19724;51.114;13.906;2023-01-26T07:06:23;1.10;99.90
33368;DHT22;19724;51.114;13.906;2023-01-26T07:08:48;1.20;99.90
33368;DHT22;19724;51.114;13.906;2023-01-26T07:11:14;1.40;99.90
33368;DHT22;19724;51.114;13.906;2023-01-26T07:13:41;1.20;99.90
33368;DHT22;19724;51.114;13.906;2023-01-26T07:16:09;1.20;99.90
33368;DHT22;19724;51.114;13.906;2023-01-26T07:18:35;1.20;99.90
33368;DHT22;19724;51.114;13.906;2023-01-26T07:21:13;1.20;99.90
33368;DHT22;19724;51.114;13.906;2023-01-26T07:23:39;1.20;99.90
33368;DHT22;19724;51.114;13.906;2023-01-26T07:26:04;1.20;99.90
33368;DHT22;19724;51.114;13.906;2023-01-26T07:28:30;1.20;99.90
33368;DHT22;19724;51.114;13.906;2023-01-26T07:31:00;1.10;99.90
33368;DHT22;19724;51.114;13.906;2023-01-26T07:33:27;1.20;99.90
33368;DHT22;19724;51.114;13.906;2023-01-26T07:35:54;1.20;99.90
33368;DHT22;19724;51.114;13.906;2023-01-26T07:38:20;1.20;99.90
33368;DHT22;19724;51.114;13.906;2023-01-26T07:40:45;1.20;99.90
33368;DHT22;19724;51.114;13.906;2023-01-26T07:43:12;1.20;99.90
33368;DHT22;19724;51.114;13.906;2023-01-26T07:45:37;1.30;99.90
33368;DHT22;19724;51.114;13.906;2023-01-26T07:48:03;1.20;99.90
33368;DHT22;19724;51.114;13.906;2023-01-26T07:50:28;1.20;99.90
33368;DHT22;19724;51.114;13.906;2023-01-26T07:52:54;1.20;99.90
33368;DHT22;19724;51.114;13.906;2023-01-26T07:55:19;1.10;99.90
33368;DHT22;19724;51.114;13.906;2023-01-26T07:57:48;1.30;99.90
33368;DHT22;19724;51.114;13.906;2023-01-26T08:00:15;1.40;99.90
33368;DHT22;19724;51.114;13.906;2023-01-26T08:02:40;1.30;99.90
33368;DHT22;19724;51.114;13.906;2023-01-26T08:05:06;1.30;99.90
33368;DHT22;19724;51.114;13.906;2023-01-26T08:07:32;1.30;99.90
33368;DHT22;19724;51.114;13.906;2023-01-26T08:09:57;1.30;99.90
33368;DHT22;19724;51.114;13.906;2023-01-26T08:12:23;1.30;99.90
33368;DHT22;19724;51.114;13.906;2023-01-26T08:14:49;1.20;99.90
33368;DHT22;19724;51.114;13.906;2023-01-26T08:17:15;1.20;99.90
33368;DHT22;19724;51.114;13.906;2023-01-26T08:19:41;1.20;99.90
33368;DHT22;19724;51.114;13.906;2023-01-26T08:22:07;1.20;99.90
33368;DHT22;19724;51.114;13.906;2023-01-26T08:24:33;1.20;99.90
33368;DHT22;19724;51.114;13.906;2023-01-26T08:26:58;1.10;99.90
33368;DHT22;19724;51.114;13.906;2023-01-26T08:29:24;1.20;99.90
33368;DHT22;19724;51.114;13.906;2023-01-26T08:31:49;1.20;99.90
33368;DHT22;19724;51.114;13.906;2023-01-26T08:34:15;1.20;99.90
33368;DHT22;19724;51.114;13.906;2023-01-26T08:36:40;1.20;99.90
33368;DHT22;19724;51.114;13.906;2023-01-26T08:39:06;1.20;99.90
33368;DHT22;19724;51.114;13.906;2023-01-26T08:41:31;1.20;99.90
33368;DHT22;19724;51.114;13.906;2023-01-26T08:43:58;1.30;99.90
33368;DHT22;19724;51.114;13.906;2023-01-26T08:46:24;1.20;99.90
33368;DHT22;19724;51.114;13.906;2023-01-26T08:48:49;1.30;99.90
33368;DHT22;19724;51.114;13.906;2023-01-26T08:51:15;1.30;99.90
33368;DHT22;19724;51.114;13.906;2023-01-26T08:53:41;1.30;99.90
33368;DHT22;19724;51.114;13.906;2023-01-26T08:56:08;1.30;99.90
33368;DHT22;19724;51.114;13.906;2023-01-26T08:58:35;1.40;99.90
33368;DHT22;19724;51.114;13.906;2023-01-26T09:01:05;1.30;99.90
33368;DHT22;19724;51.114;13.906;2023-01-26T09:03:32;1.30;99.90
33368;DHT22;19724;51.114;13.906;2023-01-26T09:06:02;1.30;99.90
33368;DHT22;19724;51.114;13.906;2023-01-26T09:08:28;1.30;99.90
33368;DHT22;19724;51.114;13.906;2023-01-26T09:10:54;1.30;99.90
33368;DHT22;19724;51.114;13.906;2023-01-26T09:13:20;1.30;99.90
33368;DHT22;19724;51.114;13.906;2023-01-26T09:15:45;1.30;99.90
33368;DHT22;19724;51.114;13.906;2023-01-26T09:18:11;1.30;99.90
33368;DHT22;19724;51.114;13.906;2023-01-26T09:20:37;1.40;99.90
33368;DHT22;19724;51.114;13.906;2023-01-26T09:23:03;1.30;99.90
33368;DHT22;19724;51.114;13.906;2023-01-26T09:25:28;1.30;99.90
33368;DHT22;19724;51.114;13.906;2023-01-26T09:27:54;1.30;99.90
33368;DHT22;19724;51.114;13.906;2023-01-26T09:30:19;1.40;99.90
33368;DHT22;19724;51.114;13.906;2023-01-26T09:32:45;1.40;99.90
33368;DHT22;19724;51.114;13.906;2023-01-26T09:35:10;1.30;99.90
33368;DHT22;19724;51.114;13.906;2023-01-26T09:37:37;1.40;99.90
33368;DHT22;19724;51.114;13.906;2023-01-26T09:40:04;1.30;99.90
33368;DHT22;19724;51.114;13.906;2023-01-26T09:42:59;1.30;99.90
33368;DHT22;19724;51.114;13.906;2023-01-26T09:45:36;1.30;99.90
33368;DHT22;19724;51.114;13.906;2023-01-26T09:48:15;1.30;99.90
33368;DHT22;19724;51.114;13.906;2023-01-26T09:53:56;1.30;99.90
33368;DHT22;19724;51.114;13.906;2023-01-26T09:56:27;1.30;99.90
33368;DHT22;19724;51.114;13.906;2023-01-26T09:58:59;1.30;99.90
33368;DHT22;19724;51.114;13.906;2023-01-26T10:01:52;1.30;99.90
33368;DHT22;19724;51.114;13.906;2023-01-26T10:04:47;1.30;99.90
33368;DHT22;19724;51.114;13.906;2023-01-26T10:07:14;1.30;99.90
33368;DHT22;19724;51.114;13.906;2023-01-26T10:09:41;1.40;99.90
33368;DHT22;19724;51.114;13.906;2023-01-26T10:12:17;1.20;99.90
33368;DHT22;19724;51.114;13.906;2023-01-26T10:14:57;1.20;99.90
33368;DHT22;19724;51.114;13.906;2023-01-26T10:17:39;1.20;99.90
33368;DHT22;19724;51.114;13.906;2023-01-26T10:20:30;1.20;99.90
33368;DHT22;19724;51.114;13.906;2023-01-26T10:23:03;1.20;99.90
33368;DHT22;19724;51.114;13.906;2023-01-26T10:25:38;1.20;99.90
33368;DHT22;19724;51.114;13.906;2023-01-26T10:28:18;1.20;99.90
33368;DHT22;19724;51.114;13.906;2023-01-26T10:30:47;1.20;99.90
33368;DHT22;19724;51.114;13.906;2023-01-26T10:33:31;1.20;99.90
33368;DHT22;19724;51.114;13.906;2023-01-26T10:35:58;1.10;99.90
33368;DHT22;19724;51.114;13.906;2023-01-26T10:41:04;1.20;99.90
33368;DHT22;19724;51.114;13.906;2023-01-26T10:43:40;1.20;99.90
33368;DHT22;19724;51.114;13.906;2023-01-26T10:46:23;1.20;99.90
33368;DHT22;19724;51.114;13.906;2023-01-26T10:51:26;1.20;99.90
33368;DHT22;19724;51.114;13.906;2023-01-26T10:54:13;1.20;99.90
33368;DHT22;19724;51.114;13.906;2023-01-26T10:56:48;1.20;99.90
33368;DHT22;19724;51.114;13.906;2023-01-26T10:59:21;1.20;99.90
33368;DHT22;19724;51.114;13.906;2023-01-26T11:07:45;1.20;99.90
33368;DHT22;19724;51.114;13.906;2023-01-26T11:12:45;1.20;99.90
33368;DHT22;19724;51.114;13.906;2023-01-26T11:15:20;1.20;99.90
33368;DHT22;19724;51.114;13.906;2023-01-26T11:17:59;1.20;99.90
33368;DHT22;19724;51.114;13.906;2023-01-26T11:26:42;1.20;99.90
33368;DHT22;19724;51.114;13.906;2023-01-26T11:29:40;1.20;99.90
33368;DHT22;19724;51.114;13.906;2023-01-26T11:32:30;1.20;99.90
33368;DHT22;19724;51.114;13.906;2023-01-26T11:41:05;1.20;99.90
33368;DHT22;19724;51.114;13.906;2023-01-26T11:44:05;1.20;99.90
33368;DHT22;19724;51.114;13.906;2023-01-26T11:49:36;1.30;99.90
33368;DHT22;19724;51.114;13.906;2023-01-26T11:52:22;1.30;99.90
33368;DHT22;19724;51.114;13.906;2023-01-26T11:58:00;1.30;99.90
33368;DHT22;19724;51.114;13.906;2023-01-26T12:00:34;1.30;99.90
33368;DHT22;19724;51.114;13.906;2023-01-26T12:03:03;1.30;99.90
33368;DHT22;19724;51.114;13.906;2023-01-26T12:05:41;1.30;99.90
33368;DHT22;19724;51.114;13.906;2023-01-26T12:11:09;1.30;99.90
33368;DHT22;19724;51.114;13.906;2023-01-26T12:13:56;1.30;99.90
33368;DHT22;19724;51.114;13.906;2023-01-26T12:21:48;1.20;99.90
33368;DHT22;19724;51.114;13.906;2023-01-26T12:24:19;1.20;99.90
33368;DHT22;19724;51.114;13.906;2023-01-26T12:26:50;1.30;99.90
33368;DHT22;19724;51.114;13.906;2023-01-26T12:29:22;1.30;99.90
33368;DHT22;19724;51.114;13.906;2023-01-26T12:32:11;1.30;99.90
33368;DHT22;19724;51.114;13.906;2023-01-26T12:34:38;1.30;99.90
33368;DHT22;19724;51.114;13.906;2023-01-26T12:37:22;1.30;99.90
33368;DHT22;19724;51.114;13.906;2023-01-26T12:39:58;1.30;99.90
33368;DHT22;19724;51.114;13.906;2023-01-26T12:42:38;1.30;99.90
33368;DHT22;19724;51.114;13.906;2023-01-26T12:45:11;1.30;99.90
33368;DHT22;19724;51.114;13.906;2023-01-26T12:47:46;1.30;99.90
33368;DHT22;19724;51.114;13.906;2023-01-26T12:53:13;1.30;99.90
33368;DHT22;19724;51.114;13.906;2023-01-26T12:55:46;1.30;99.90
33368;DHT22;19724;51.114;13.906;2023-01-26T12:58:17;1.30;99.90
33368;DHT22;19724;51.114;13.906;2023-01-26T13:01:02;1.20;99.90
33368;DHT22;19724;51.114;13.906;2023-01-26T13:03:32;1.20;99.90
33368;DHT22;19724;51.114;13.906;2023-01-26T13:11:02;1.20;99.90
33368;DHT22;19724;51.114;13.906;2023-01-26T13:13:31;1.10;99.90
33368;DHT22;19724;51.114;13.906;2023-01-26T13:19:07;1.10;99.90
33368;DHT22;19724;51.114;13.906;2023-01-26T13:21:51;1.10;99.90
33368;DHT22;19724;51.114;13.906;2023-01-26T13:26:46;1.10;99.90
33368;DHT22;19724;51.114;13.906;2023-01-26T13:31:52;1.20;99.90
33368;DHT22;19724;51.114;13.906;2023-01-26T13:34:42;1.20;99.90
33368;DHT22;19724;51.114;13.906;2023-01-26T13:37:27;1.20;99.90
33368;DHT22;19724;51.114;13.906;2023-01-26T13:40:00;1.20;99.90
33368;DHT22;19724;51.114;13.906;2023-01-26T13:42:54;1.20;99.90
33368;DHT22;19724;51.114;13.906;2023-01-26T13:45:38;1.20;99.90
33368;DHT22;19724;51.114;13.906;2023-01-26T13:48:12;1.20;99.90
33368;DHT22;19724;51.114;13.906;2023-01-26T13:50:39;1.20;99.90
33368;DHT22;19724;51.114;13.906;2023-01-26T13:53:25;1.20;99.90
33368;DHT22;19724;51.114;13.906;2023-01-26T13:55:56;1.20;99.90
33368;DHT22;19724;51.114;13.906;2023-01-26T13:58:23;1.20;99.90
33368;DHT22;19724;51.114;13.906;2023-01-26T14:01:05;1.20;99.90
33368;DHT22;19724;51.114;13.906;2023-01-26T14:03:32;1.10;99.90
33368;DHT22;19724;51.114;13.906;2023-01-26T14:06:00;1.20;99.90
33368;DHT22;19724;51.114;13.906;2023-01-26T14:08:27;1.10;99.90
33368;DHT22;19724;51.114;13.906;2023-01-26T14:10:54;1.20;99.90
33368;DHT22;19724;51.114;13.906;2023-01-26T14:13:32;1.10;99.90
33368;DHT22;19724;51.114;13.906;2023-01-26T14:16:01;1.10;99.90
33368;DHT22;19724;51.114;13.906;2023-01-26T14:18:27;1.20;99.90
33368;DHT22;19724;51.114;13.906;2023-01-26T14:21:01;1.20;99.90
33368;DHT22;19724;51.114;13.906;2023-01-26T14:23:32;1.20;99.90
33368;DHT22;19724;51.114;13.906;2023-01-26T14:26:04;1.10;99.90
33368;DHT22;19724;51.114;13.906;2023-01-26T14:28:35;1.10;99.90
33368;DHT22;19724;51.114;13.906;2023-01-26T14:31:21;1.10;99.90
33368;DHT22;19724;51.114;13.906;2023-01-26T14:33:52;1.00;99.90
33368;DHT22;19724;51.114;13.906;2023-01-26T14:36:26;1.00;99.90
33368;DHT22;19724;51.114;13.906;2023-01-26T14:38:54;1.00;99.90
33368;DHT22;19724;51.114;13.906;2023-01-26T14:41:25;1.00;99.90
33368;DHT22;19724;51.114;13.906;2023-01-26T14:43:52;0.90;99.90
33368;DHT22;19724;51.114;13.906;2023-01-26T14:46:44;0.90;99.90
33368;DHT22;19724;51.114;13.906;2023-01-26T14:49:23;0.90;99.90
33368;DHT22;19724;51.114;13.906;2023-01-26T14:51:56;0.90;99.90
33368;DHT22;19724;51.114;13.906;2023-01-26T14:54:30;0.90;99.90
33368;DHT22;19724;51.114;13.906;2023-01-26T14:56:58;0.90;99.90
33368;DHT22;19724;51.114;13.906;2023-01-26T14:59:31;0.90;99.90
33368;DHT22;19724;51.114;13.906;2023-01-26T15:02:08;0.90;99.90
33368;DHT22;19724;51.114;13.906;2023-01-26T15:04:39;0.90;99.90
33368;DHT22;19724;51.114;13.906;2023-01-26T15:15:37;0.80;99.90
33368;DHT22;19724;51.114;13.906;2023-01-26T15:20:53;0.70;99.90
33368;DHT22;19724;51.114;13.906;2023-01-26T15:23:44;0.70;99.90
33368;DHT22;19724;51.114;13.906;2023-01-26T15:26:26;0.70;99.90
33368;DHT22;19724;51.114;13.906;2023-01-26T15:28:53;0.80;99.90
33368;DHT22;19724;51.114;13.906;2023-01-26T15:31:32;0.70;99.90
33368;DHT22;19724;51.114;13.906;2023-01-26T15:33:59;0.80;99.90
33368;DHT22;19724;51.114;13.906;2023-01-26T15:39:15;0.80;99.90
33368;DHT22;19724;51.114;13.906;2023-01-26T15:41:44;0.80;99.90
33368;DHT22;19724;51.114;13.906;2023-01-26T15:44:15;0.80;99.90
33368;DHT22;19724;51.114;13.906;2023-01-26T15:46:41;0.70;99.90
33368;DHT22;19724;51.114;13.906;2023-01-26T15:49:07;0.70;99.90
33368;DHT22;19724;51.114;13.906;2023-01-26T15:51:35;0.70;99.90
33368;DHT22;19724;51.114;13.906;2023-01-26T15:54:00;0.70;99.90
33368;DHT22;19724;51.114;13.906;2023-01-26T15:56:26;0.70;99.90
33368;DHT22;19724;51.114;13.906;2023-01-26T15:58:52;0.70;99.90
33368;DHT22;19724;51.114;13.906;2023-01-26T16:01:20;0.70;99.90
33368;DHT22;19724;51.114;13.906;2023-01-26T16:03:51;0.70;99.90
33368;DHT22;19724;51.114;13.906;2023-01-26T16:06:23;0.70;99.90
33368;DHT22;19724;51.114;13.906;2023-01-26T16:08:49;0.70;99.90
33368;DHT22;19724;51.114;13.906;2023-01-26T16:11:16;0.60;99.90
33368;DHT22;19724;51.114;13.906;2023-01-26T16:13:44;0.60;99.90
33368;DHT22;19724;51.114;13.906;2023-01-26T16:16:11;0.60;99.90
33368;DHT22;19724;51.114;13.906;2023-01-26T16:18:38;0.60;99.90
33368;DHT22;19724;51.114;13.906;2023-01-26T16:21:15;0.60;99.90
33368;DHT22;19724;51.114;13.906;2023-01-26T16:23:41;0.60;99.90
33368;DHT22;19724;51.114;13.906;2023-01-26T16:26:09;0.50;99.90
33368;DHT22;19724;51.114;13.906;2023-01-26T16:28:35;0.50;99.90
33368;DHT22;19724;51.114;13.906;2023-01-26T16:31:01;0.50;99.90
33368;DHT22;19724;51.114;13.906;2023-01-26T16:33:26;0.50;99.90
33368;DHT22;19724;51.114;13.906;2023-01-26T16:35:52;0.50;99.90
33368;DHT22;19724;51.114;13.906;2023-01-26T16:38:18;0.50;99.90
33368;DHT22;19724;51.114;13.906;2023-01-26T16:40:46;0.40;99.90
33368;DHT22;19724;51.114;13.906;2023-01-26T16:45:43;0.30;99.90
33368;DHT22;19724;51.114;13.906;2023-01-26T16:48:11;0.30;99.90
33368;DHT22;19724;51.114;13.906;2023-01-26T16:50:38;0.30;99.90
33368;DHT22;19724;51.114;13.906;2023-01-26T16:55:42;0.30;99.90
33368;DHT22;19724;51.114;13.906;2023-01-26T16:58:07;0.30;99.90
33368;DHT22;19724;51.114;13.906;2023-01-26T17:00:33;0.30;99.90
33368;DHT22;19724;51.114;13.906;2023-01-26T17:02:58;0.30;99.90
33368;DHT22;19724;51.114;13.906;2023-01-26T17:05:24;0.30;99.90
33368;DHT22;19724;51.114;13.906;2023-01-26T17:07:49;0.30;99.90
33368;DHT22;19724;51.114;13.906;2023-01-26T17:10:16;0.30;99.90
33368;DHT22;19724;51.114;13.906;2023-01-26T17:12:42;0.30;99.90
33368;DHT22;19724;51.114;13.906;2023-01-26T17:15:10;0.30;99.90
33368;DHT22;19724;51.114;13.906;2023-01-26T17:17:36;0.40;99.90